createdAt,value
2023-02-27T00:01:54.681Z,98890.97
2023-02-27T00:04:21.164Z,98893.31
2023-02-27T00:06:47.588Z,98903.34
2023-02-27T00:09:14.017Z,98893.81
2023-02-27T00:11:40.543Z,98903.84
2023-02-27T00:14:06.981Z,98900.44
2023-02-27T00:16:34.299Z,98909.28
2023-02-27T00:19:02.366Z,98899.97
2023-02-27T00:21:28.983Z,98903.16
2023-02-27T00:23:55.565Z,98896.44
2023-02-27T00:26:22.255Z,98903.00
2023-02-27T00:28:48.750Z,98903.16
2023-02-27T00:31:15.384Z,98898.06
2023-02-27T00:33:41.877Z,98903.19
2023-02-27T00:36:08.394Z,98901.31
2023-02-27T00:38:35.546Z,98904.50
2023-02-27T00:41:02.804Z,98906.19
2023-02-27T00:43:29.467Z,98897.78
2023-02-27T00:45:55.914Z,98904.81
2023-02-27T00:48:22.435Z,98900.78
2023-02-27T00:50:50.676Z,98902.22
2023-02-27T00:53:17.167Z,98903.09
2023-02-27T00:55:43.662Z,98902.41
2023-02-27T00:58:10.087Z,98901.44
2023-02-27T01:00:36.593Z,98902.31
2023-02-27T01:03:03.822Z,98907.28
2023-02-27T01:05:30.377Z,98900.63
2023-02-27T01:07:56.835Z,98900.81
2023-02-27T01:10:23.444Z,98893.91
2023-02-27T01:12:49.830Z,98891.28
2023-02-27T01:15:16.566Z,98890.50
2023-02-27T01:17:43.180Z,98896.28
2023-02-27T01:20:12.259Z,98887.75
2023-02-27T01:22:38.731Z,98889.91
2023-02-27T01:25:05.681Z,98883.97
2023-02-27T01:27:32.232Z,98883.03
2023-02-27T01:29:58.781Z,98879.66
2023-02-27T01:32:25.339Z,98880.50
2023-02-27T01:34:51.794Z,98886.50
2023-02-27T01:37:18.870Z,98880.56
2023-02-27T01:39:45.263Z,98886.63
2023-02-27T01:42:24.374Z,98891.63
2023-02-27T01:45:09.557Z,98890.09
2023-02-27T01:47:37.774Z,98890.84
2023-02-27T01:50:04.527Z,98888.09
2023-02-27T01:52:31.784Z,98888.19
2023-02-27T01:54:58.793Z,98888.03
2023-02-27T01:57:26.665Z,98894.75
2023-02-27T01:59:53.804Z,98897.88
2023-02-27T02:02:25.438Z,98893.91
2023-02-27T02:04:54.185Z,98899.50
2023-02-27T02:07:21.343Z,98906.22
2023-02-27T02:09:54.673Z,98905.50
2023-02-27T02:12:27.751Z,98901.44
2023-02-27T02:14:54.401Z,98899.69
2023-02-27T02:17:40.324Z,98902.28
2023-02-27T02:20:27.357Z,98901.72
2023-02-27T02:23:18.756Z,98903.59
2023-02-27T02:26:33.200Z,98916.00
2023-02-27T02:29:30.763Z,98914.06
2023-02-27T02:32:07.681Z,98912.88
2023-02-27T02:34:46.769Z,98924.09
2023-02-27T02:37:34.275Z,98924.75
2023-02-27T02:40:24.547Z,98923.31
2023-02-27T02:43:13.743Z,98927.25
2023-02-27T02:46:08.206Z,98923.84
2023-02-27T02:49:03.142Z,98930.47
2023-02-27T02:51:39.324Z,98922.00
2023-02-27T02:54:17.128Z,98928.09
2023-02-27T02:56:50.442Z,98922.13
2023-02-27T02:59:35.564Z,98927.06
2023-02-27T03:02:10.704Z,98933.41
2023-02-27T03:04:50.464Z,98935.09
2023-02-27T03:07:30.289Z,98933.59
2023-02-27T03:10:17.866Z,98934.28
2023-02-27T03:12:51.615Z,98938.28
2023-02-27T03:15:27.134Z,98943.91
2023-02-27T03:18:01.310Z,98943.56
2023-02-27T03:20:41.475Z,98943.84
2023-02-27T03:23:29.726Z,98947.09
2023-02-27T03:25:58.282Z,98940.38
2023-02-27T03:28:29.085Z,98950.34
2023-02-27T03:31:13.634Z,98939.84
2023-02-27T03:33:53.675Z,98943.63
2023-02-27T03:36:26.370Z,98945.16
2023-02-27T03:39:05.599Z,98937.50
2023-02-27T03:41:44.890Z,98944.19
2023-02-27T03:44:22.294Z,98947.78
2023-02-27T03:46:48.830Z,98946.78
2023-02-27T03:49:15.404Z,98941.63
2023-02-27T03:51:41.897Z,98942.41
2023-02-27T03:54:14.758Z,98945.09
2023-02-27T03:56:56.271Z,98945.16
2023-02-27T03:59:24.435Z,98952.81
2023-02-27T04:01:51.973Z,98950.19
2023-02-27T04:04:18.748Z,98953.50
2023-02-27T04:07:09.369Z,98952.72
2023-02-27T04:10:00.726Z,98951.69
2023-02-27T04:12:55.170Z,98956.78
2023-02-27T04:15:40.323Z,98951.72
2023-02-27T04:18:29.590Z,98949.38
2023-02-27T04:21:09.338Z,98954.31
2023-02-27T04:23:57.892Z,98960.94
2023-02-27T04:26:39.939Z,98956.50
2023-02-27T04:29:11.195Z,98965.56
2023-02-27T04:31:53.300Z,98972.91
2023-02-27T04:34:31.915Z,98960.75
2023-02-27T04:37:06.556Z,98971.56
2023-02-27T04:39:56.414Z,98969.97
2023-02-27T04:42:31.127Z,98972.66
2023-02-27T04:45:00.985Z,98975.88
2023-02-27T04:47:31.770Z,98978.84
2023-02-27T04:50:27.398Z,98979.69
2023-02-27T04:53:01.955Z,98974.31
2023-02-27T04:55:32.459Z,98975.25
2023-02-27T04:58:12.743Z,98985.91
2023-02-27T05:00:42.899Z,98986.69
2023-02-27T05:03:18.335Z,98979.94
2023-02-27T05:05:47.240Z,98991.50
2023-02-27T05:08:42.065Z,98990.69
2023-02-27T05:11:38.347Z,98986.22
2023-02-27T05:14:18.280Z,98994.56
2023-02-27T05:16:56.738Z,98997.47
2023-02-27T05:19:23.615Z,98991.19
2023-02-27T05:22:05.266Z,98992.53
2023-02-27T05:25:12.279Z,98988.91
2023-02-27T05:27:56.083Z,98994.63
2023-02-27T05:30:36.082Z,99000.84
2023-02-27T05:33:07.337Z,99003.59
2023-02-27T05:35:55.000Z,99004.69
2023-02-27T05:38:27.939Z,99004.25
2023-02-27T05:41:01.211Z,99009.94
2023-02-27T05:43:51.532Z,99014.09
2023-02-27T05:46:26.485Z,99009.41
2023-02-27T05:48:57.946Z,99025.13
2023-02-27T05:51:29.929Z,99029.81
2023-02-27T05:54:13.731Z,99031.16
2023-02-27T05:56:43.479Z,99030.50
2023-02-27T05:59:22.402Z,99037.66
2023-02-27T06:01:48.866Z,99038.25
2023-02-27T06:04:15.375Z,99045.81
2023-02-27T06:06:42.101Z,99039.25
2023-02-27T06:09:09.526Z,99040.53
2023-02-27T06:11:35.992Z,99043.34
2023-02-27T06:14:03.342Z,99041.47
2023-02-27T06:16:30.303Z,99045.50
2023-02-27T06:18:57.057Z,99047.09
2023-02-27T06:21:23.608Z,99052.25
2023-02-27T06:23:50.060Z,99053.03
2023-02-27T06:26:16.544Z,99056.41
2023-02-27T06:28:43.150Z,99055.69
2023-02-27T06:31:09.631Z,99053.69
2023-02-27T06:33:36.108Z,99055.03
2023-02-27T06:36:02.714Z,99059.34
2023-02-27T06:38:29.235Z,99056.09
2023-02-27T06:40:55.659Z,99057.34
2023-02-27T06:43:24.740Z,99056.06
2023-02-27T06:45:54.690Z,99059.13
2023-02-27T06:48:21.347Z,99053.09
2023-02-27T06:50:56.227Z,99064.31
2023-02-27T06:53:24.318Z,99060.81
2023-02-27T06:55:50.942Z,99066.22
2023-02-27T06:58:17.983Z,99060.31
2023-02-27T07:00:44.594Z,99062.94
2023-02-27T07:03:12.523Z,99058.13
2023-02-27T07:05:40.143Z,99062.06
2023-02-27T07:08:06.588Z,99062.72
2023-02-27T07:10:34.076Z,99067.47
2023-02-27T07:13:00.459Z,99060.19
2023-02-27T07:15:27.085Z,99058.19
2023-02-27T07:17:54.459Z,99051.66
2023-02-27T07:20:20.888Z,99059.88
2023-02-27T07:22:47.379Z,99058.66
2023-02-27T07:25:13.836Z,99051.00
2023-02-27T07:27:40.248Z,99052.16
2023-02-27T07:30:07.466Z,99048.47
2023-02-27T07:32:33.865Z,99049.19
2023-02-27T07:35:00.339Z,99056.53
2023-02-27T07:37:28.232Z,99054.47
2023-02-27T07:39:54.725Z,99062.94
2023-02-27T07:42:21.190Z,99064.69
2023-02-27T07:44:47.668Z,99068.91
2023-02-27T07:47:14.121Z,99067.22
2023-02-27T07:49:40.563Z,99070.03
2023-02-27T07:52:08.293Z,99075.59
2023-02-27T07:54:37.494Z,99070.59
2023-02-27T07:57:05.025Z,99064.34
2023-02-27T07:59:31.531Z,99062.94
2023-02-27T08:01:58.271Z,99070.88
2023-02-27T08:04:24.863Z,99082.59
2023-02-27T08:06:51.300Z,99081.66
2023-02-27T08:09:17.848Z,99075.44
2023-02-27T08:11:44.279Z,99073.91
2023-02-27T08:14:10.817Z,99071.94
2023-02-27T08:16:37.554Z,99077.78
2023-02-27T08:19:04.101Z,99077.69
2023-02-27T08:21:30.719Z,99085.72
2023-02-27T08:23:57.438Z,99079.69
2023-02-27T08:26:23.911Z,99077.66
2023-02-27T08:28:50.725Z,99080.91
2023-02-27T08:31:17.187Z,99082.03
2023-02-27T08:33:43.948Z,99075.38
2023-02-27T08:36:10.523Z,99079.81
2023-02-27T08:38:36.979Z,99075.31
2023-02-27T08:41:03.638Z,99077.72
2023-02-27T08:43:30.049Z,99087.59
2023-02-27T08:45:56.535Z,99081.38
2023-02-27T08:48:24.831Z,99076.38
2023-02-27T08:50:52.197Z,99075.44
2023-02-27T08:53:18.729Z,99073.84
2023-02-27T08:55:49.878Z,99080.38
2023-02-27T08:58:17.200Z,99079.03
2023-02-27T09:00:44.731Z,99082.44
2023-02-27T09:03:11.377Z,99086.03
2023-02-27T09:05:38.547Z,99091.38
2023-02-27T09:08:05.533Z,99078.34
2023-02-27T09:10:33.041Z,99095.91
2023-02-27T09:12:59.754Z,99095.59
2023-02-27T09:15:26.421Z,99096.94
2023-02-27T09:17:56.352Z,99096.25
2023-02-27T09:20:23.012Z,99099.78
2023-02-27T09:22:49.550Z,99096.59
2023-02-27T09:25:15.995Z,99093.31
2023-02-27T09:27:42.434Z,99100.50
2023-02-27T09:30:09.655Z,99103.94
2023-02-27T09:32:36.121Z,99106.31
2023-02-27T09:35:02.579Z,99099.78
2023-02-27T09:37:29.086Z,99103.66
2023-02-27T09:39:55.480Z,99107.66
2023-02-27T09:42:29.387Z,99111.31
2023-02-27T09:45:01.939Z,99116.69
2023-02-27T09:47:39.643Z,99115.22
2023-02-27T09:50:20.036Z,99114.13
2023-02-27T09:52:46.460Z,99121.31
2023-02-27T09:55:19.030Z,99116.59
2023-02-27T09:58:07.862Z,99110.75
2023-02-27T10:00:53.394Z,99113.25
2023-02-27T10:04:00.405Z,99116.91
2023-02-27T10:06:38.851Z,99112.00
2023-02-27T10:09:33.679Z,99116.75
2023-02-27T10:12:12.951Z,99128.00
2023-02-27T10:14:47.717Z,99123.75
2023-02-27T10:17:22.298Z,99129.13
2023-02-27T10:19:52.064Z,99125.91
2023-02-27T10:22:28.843Z,99112.59
2023-02-27T10:25:28.727Z,99123.94
2023-02-27T10:28:09.019Z,99124.81
2023-02-27T10:30:35.743Z,99128.91
2023-02-27T10:33:09.959Z,99124.69
2023-02-27T10:35:39.884Z,99124.72
2023-02-27T10:38:12.879Z,99125.53
2023-02-27T10:40:41.725Z,99128.13
2023-02-27T10:43:08.420Z,99118.03
2023-02-27T10:45:35.945Z,99130.84
2023-02-27T10:48:05.360Z,99149.59
2023-02-27T10:50:38.167Z,99129.00
2023-02-27T10:53:16.970Z,99132.31
2023-02-27T10:55:47.834Z,99122.09
2023-02-27T10:58:20.690Z,99120.94
2023-02-27T11:00:55.995Z,99123.81
2023-02-27T11:03:34.116Z,99126.41
2023-02-27T11:06:20.544Z,99119.59
2023-02-27T11:09:18.657Z,99119.81
2023-02-27T11:11:45.081Z,99121.94
2023-02-27T11:14:25.089Z,99119.16
2023-02-27T11:16:53.767Z,99133.13
2023-02-27T11:19:36.681Z,99110.81
2023-02-27T11:22:14.121Z,99111.13
2023-02-27T11:24:41.348Z,99118.69
2023-02-27T11:27:21.984Z,99118.63
2023-02-27T11:30:04.082Z,99130.41
2023-02-27T11:32:41.150Z,99118.34
2023-02-27T11:35:23.113Z,99114.00
2023-02-27T11:37:55.230Z,99119.97
2023-02-27T11:40:26.561Z,99098.94
2023-02-27T11:42:56.812Z,99106.59
2023-02-27T11:46:13.569Z,99111.66
2023-02-27T11:48:29.349Z,99106.34
2023-02-27T11:51:11.037Z,99104.63
2023-02-27T11:53:48.170Z,99106.44
2023-02-27T11:56:22.227Z,99103.03
2023-02-27T11:59:01.498Z,99089.75
2023-02-27T12:01:38.843Z,99089.56
2023-02-27T12:04:16.614Z,99097.06
2023-02-27T12:06:56.262Z,99098.84
2023-02-27T12:09:38.955Z,99086.50
2023-02-27T12:12:22.223Z,99089.09
2023-02-27T12:15:02.561Z,99068.84
2023-02-27T12:17:43.545Z,99076.84
2023-02-27T12:20:25.092Z,99074.47
2023-02-27T12:22:54.144Z,99065.97
2023-02-27T12:25:33.553Z,99066.69
2023-02-27T12:28:00.116Z,99062.22
2023-02-27T12:30:30.439Z,99050.47
2023-02-27T12:33:45.302Z,99057.56
2023-02-27T12:36:14.067Z,99058.31
2023-02-27T12:38:41.235Z,99065.81
2023-02-27T12:41:36.603Z,99058.94
2023-02-27T12:44:41.920Z,99062.16
2023-02-27T12:47:22.583Z,99066.56
2023-02-27T12:49:58.916Z,99062.69
2023-02-27T12:52:39.300Z,99065.22
2023-02-27T12:55:13.300Z,99060.34
2023-02-27T12:58:04.636Z,99053.75
2023-02-27T13:00:46.321Z,99055.97
2023-02-27T13:03:22.079Z,99060.34
2023-02-27T13:06:25.297Z,99059.88
2023-02-27T13:09:01.097Z,99059.31
2023-02-27T13:11:43.702Z,99055.25
2023-02-27T13:14:33.904Z,99049.31
2023-02-27T13:17:05.158Z,99056.44
2023-02-27T13:19:58.184Z,99060.81
2023-02-27T13:22:45.908Z,99057.53
2023-02-27T13:25:17.631Z,99053.22
2023-02-27T13:27:52.002Z,99066.63
2023-02-27T13:30:26.856Z,99063.97
2023-02-27T13:33:05.975Z,99058.69
2023-02-27T13:35:51.206Z,99044.16
2023-02-27T13:38:41.791Z,99046.09
2023-02-27T13:41:20.418Z,99047.94
2023-02-27T13:43:52.411Z,99044.97
2023-02-27T13:46:34.702Z,99045.34
2023-02-27T13:49:04.175Z,99050.34
2023-02-27T13:51:39.945Z,99048.88
2023-02-27T13:54:15.968Z,99044.50
2023-02-27T13:56:46.449Z,99052.91
2023-02-27T13:59:29.047Z,99040.84
2023-02-27T14:02:06.970Z,99047.50
2023-02-27T14:04:37.021Z,99040.50
2023-02-27T14:07:10.768Z,99037.72
2023-02-27T14:09:41.056Z,99042.84
2023-02-27T14:12:46.887Z,99044.31
2023-02-27T14:15:22.556Z,99051.16
2023-02-27T14:18:11.476Z,99047.63
2023-02-27T14:20:40.457Z,99053.03
2023-02-27T14:23:15.861Z,99049.44
2023-02-27T14:25:51.307Z,99053.50
2023-02-27T14:28:35.950Z,99051.13
2023-02-27T14:31:05.717Z,99054.44
2023-02-27T14:33:53.991Z,99055.81
2023-02-27T14:36:28.183Z,99051.31
2023-02-27T14:38:57.517Z,99044.56
2023-02-27T14:41:58.650Z,99050.41
2023-02-27T14:44:27.941Z,99046.22
2023-02-27T14:47:01.704Z,99047.91
2023-02-27T14:49:30.719Z,99050.66
2023-02-27T14:51:57.535Z,99054.16
2023-02-27T14:54:26.258Z,99049.97
2023-02-27T14:57:05.202Z,99045.75
2023-02-27T14:59:33.288Z,99063.88
2023-02-27T15:02:04.500Z,99057.84
2023-02-27T15:04:33.034Z,99056.06
2023-02-27T15:07:00.532Z,99049.91
2023-02-27T15:09:38.364Z,99047.97
2023-02-27T15:12:05.149Z,99050.50
2023-02-27T15:14:40.057Z,99057.31
2023-02-27T15:17:18.103Z,99056.28
2023-02-27T15:19:50.488Z,99057.00
2023-02-27T15:22:36.178Z,99061.47
2023-02-27T15:25:07.581Z,99061.25
2023-02-27T15:27:37.088Z,99064.91
2023-02-27T15:30:04.714Z,99063.91
2023-02-27T15:32:34.339Z,99065.50
2023-02-27T15:35:04.812Z,99063.88
2023-02-27T15:37:33.940Z,99070.53
2023-02-27T15:40:01.401Z,99067.91
2023-02-27T15:42:31.202Z,99069.59
2023-02-27T15:44:58.500Z,99064.13
2023-02-27T15:47:28.362Z,99070.97
2023-02-27T15:50:00.182Z,99074.84
2023-02-27T15:52:31.630Z,99070.44
2023-02-27T15:55:04.219Z,99069.75
2023-02-27T15:57:32.494Z,99070.47
2023-02-27T16:00:00.757Z,99069.84
2023-02-27T16:02:39.911Z,99066.97
2023-02-27T16:05:14.324Z,99069.69
2023-02-27T16:07:42.857Z,99071.97
2023-02-27T16:10:20.220Z,99074.72
2023-02-27T16:12:46.639Z,99072.81
2023-02-27T16:15:33.007Z,99078.69
2023-02-27T16:18:06.700Z,99080.69
2023-02-27T16:20:54.759Z,99083.88
2023-02-27T16:23:31.999Z,99091.34
2023-02-27T16:26:04.529Z,99093.75
2023-02-27T16:28:52.611Z,99094.56
2023-02-27T16:31:25.754Z,99095.28
2023-02-27T16:33:53.849Z,99098.66
2023-02-27T16:36:23.376Z,99098.03
2023-02-27T16:38:49.869Z,99101.38
2023-02-27T16:41:19.200Z,99107.13
2023-02-27T16:43:47.054Z,99107.06
2023-02-27T16:46:19.939Z,99106.88
2023-02-27T16:48:55.085Z,99115.25
2023-02-27T16:51:24.935Z,99116.91
2023-02-27T16:53:52.822Z,99122.53
2023-02-27T16:56:26.192Z,99124.13
2023-02-27T16:58:58.919Z,99126.66
2023-02-27T17:01:25.355Z,99125.75
2023-02-27T17:03:53.093Z,99127.41
2023-02-27T17:06:19.559Z,99133.09
2023-02-27T17:08:46.058Z,99135.53
2023-02-27T17:11:12.508Z,99140.50
2023-02-27T17:13:39.446Z,99146.53
2023-02-27T17:16:06.529Z,99148.50
2023-02-27T17:18:33.221Z,99152.06
2023-02-27T17:21:01.472Z,99151.81
2023-02-27T17:23:27.859Z,99156.19
2023-02-27T17:25:54.764Z,99160.31
2023-02-27T17:28:22.554Z,99169.47
2023-02-27T17:30:50.317Z,99171.09
2023-02-27T17:33:17.117Z,99175.47
2023-02-27T17:35:43.575Z,99177.16
2023-02-27T17:38:10.006Z,99176.00
2023-02-27T17:40:37.713Z,99179.25
2023-02-27T17:43:04.231Z,99184.38
2023-02-27T17:45:30.713Z,99184.09
2023-02-27T17:47:57.355Z,99183.78
2023-02-27T17:50:23.788Z,99188.16
2023-02-27T17:52:50.317Z,99190.72
2023-02-27T17:55:16.915Z,99198.00
2023-02-27T17:57:43.496Z,99198.16
2023-02-27T18:00:15.780Z,99210.72
2023-02-27T18:02:45.069Z,99196.28
2023-02-27T18:05:12.667Z,99201.09
2023-02-27T18:07:39.683Z,99209.53
2023-02-27T18:10:08.967Z,99206.16
2023-02-27T18:12:36.629Z,99205.22
2023-02-27T18:15:04.190Z,99198.56
2023-02-27T18:17:30.754Z,99207.50
2023-02-27T18:19:58.030Z,99210.63
2023-02-27T18:22:25.773Z,99204.69
2023-02-27T18:24:53.951Z,99202.09
2023-02-27T18:27:22.184Z,99206.41
2023-02-27T18:29:49.460Z,99208.88
2023-02-27T18:32:16.277Z,99213.06
2023-02-27T18:34:43.452Z,99213.81
2023-02-27T18:37:10.851Z,99215.06
2023-02-27T18:39:37.512Z,99215.69
2023-02-27T18:42:06.452Z,99224.16
2023-02-27T18:44:33.160Z,99223.09
2023-02-27T18:46:59.649Z,99219.44
2023-02-27T18:49:26.107Z,99226.19
2023-02-27T18:51:52.563Z,99227.72
2023-02-27T18:54:19.032Z,99219.22
2023-02-27T18:56:45.541Z,99222.81
2023-02-27T18:59:12.080Z,99230.38
2023-02-27T19:01:38.940Z,99223.38
2023-02-27T19:04:07.766Z,99229.19
2023-02-27T19:06:40.428Z,99227.47
2023-02-27T19:09:08.723Z,99226.84
2023-02-27T19:11:35.728Z,99233.59
2023-02-27T19:14:04.151Z,99228.34
2023-02-27T19:16:31.458Z,99232.34
2023-02-27T19:18:59.424Z,99230.59
2023-02-27T19:21:26.868Z,99233.88
2023-02-27T19:23:53.352Z,99237.34
2023-02-27T19:26:20.615Z,99230.69
2023-02-27T19:28:50.815Z,99235.56
2023-02-27T19:31:17.549Z,99232.97
2023-02-27T19:33:44.053Z,99229.75
2023-02-27T19:36:13.621Z,99224.28
2023-02-27T19:38:40.753Z,99233.50
2023-02-27T19:41:10.847Z,99236.63
2023-02-27T19:43:39.129Z,99239.03
2023-02-27T19:46:07.092Z,99238.13
2023-02-27T19:48:33.808Z,99240.53
2023-02-27T19:51:08.176Z,99238.88
2023-02-27T19:53:37.302Z,99242.25
2023-02-27T19:56:06.399Z,99238.81
2023-02-27T19:58:34.086Z,99244.09
2023-02-27T20:01:00.844Z,99248.31
2023-02-27T20:03:27.408Z,99243.47
2023-02-27T20:05:53.859Z,99247.00
2023-02-27T20:08:20.973Z,99238.97
2023-02-27T20:11:01.720Z,99244.97
2023-02-27T20:13:29.114Z,99240.72
2023-02-27T20:16:04.493Z,99245.59
2023-02-27T20:18:32.087Z,99249.50
2023-02-27T20:21:13.637Z,99248.63
2023-02-27T20:23:41.761Z,99246.03
2023-02-27T20:26:20.435Z,99244.31
2023-02-27T20:28:48.878Z,99242.47
2023-02-27T20:31:18.881Z,99249.00
2023-02-27T20:33:46.420Z,99244.00
2023-02-27T20:36:13.984Z,99245.03
2023-02-27T20:38:41.426Z,99239.94
2023-02-27T20:41:10.547Z,99235.69
2023-02-27T20:43:39.887Z,99240.56
2023-02-27T20:46:09.139Z,99245.63
2023-02-27T20:48:35.706Z,99242.34
2023-02-27T20:51:22.822Z,99233.16
2023-02-27T20:53:52.726Z,99242.25
2023-02-27T20:56:24.372Z,99237.25
2023-02-27T20:58:50.951Z,99237.03
2023-02-27T21:01:18.277Z,99233.59
2023-02-27T21:03:46.840Z,99225.94
2023-02-27T21:06:15.225Z,99226.81
2023-02-27T21:08:44.894Z,99223.47
2023-02-27T21:13:46.823Z,99221.28
2023-02-27T21:16:15.202Z,99221.38
2023-02-27T21:18:42.526Z,99223.97
2023-02-27T21:21:11.819Z,99229.88
2023-02-27T21:23:41.229Z,99223.56
2023-02-27T21:26:09.529Z,99226.09
2023-02-27T21:28:46.695Z,99222.88
2023-02-27T21:31:17.992Z,99223.38
2023-02-27T21:33:44.515Z,99226.00
2023-02-27T21:36:11.563Z,99219.84
2023-02-27T21:38:39.093Z,99218.09
2023-02-27T21:41:11.807Z,99218.22
2023-02-27T21:43:40.430Z,99223.06
2023-02-27T21:46:11.820Z,99226.59
2023-02-27T21:48:39.556Z,99218.78
2023-02-27T21:51:06.582Z,99221.97
2023-02-27T21:53:33.900Z,99217.78
2023-02-27T21:56:06.514Z,99222.00
2023-02-27T21:58:33.539Z,99209.38
2023-02-27T22:01:00.469Z,99209.06
2023-02-27T22:03:34.299Z,99204.81
2023-02-27T22:06:01.807Z,99203.06
2023-02-27T22:08:28.635Z,99204.00
2023-02-27T22:10:59.329Z,99203.38
2023-02-27T22:13:26.518Z,99204.75
2023-02-27T22:15:53.850Z,99194.53
2023-02-27T22:18:20.628Z,99200.63
2023-02-27T22:20:47.049Z,99193.91
2023-02-27T22:23:13.535Z,99193.00
2023-02-27T22:25:41.000Z,99201.31
2023-02-27T22:28:07.425Z,99204.50
2023-02-27T22:30:34.316Z,99202.06
2023-02-27T22:33:00.728Z,99206.28
2023-02-27T22:35:27.148Z,99205.28
2023-02-27T22:37:53.639Z,99210.22
2023-02-27T22:40:20.459Z,99204.22
2023-02-27T22:42:48.025Z,99208.22
2023-02-27T22:45:15.228Z,99201.41
2023-02-27T22:47:41.680Z,99195.53
2023-02-27T22:50:08.872Z,99197.09
2023-02-27T22:52:38.396Z,99192.06
2023-02-27T22:55:05.283Z,99196.59
2023-02-27T22:57:31.721Z,99197.44
2023-02-27T22:59:58.131Z,99198.31
2023-02-27T23:02:24.583Z,99195.00
2023-02-27T23:04:50.980Z,99200.00
2023-02-27T23:07:17.624Z,99194.91
2023-02-27T23:09:44.154Z,99193.25
2023-02-27T23:12:10.598Z,99194.16
2023-02-27T23:14:37.007Z,99198.53
2023-02-27T23:17:03.395Z,99190.25
2023-02-27T23:19:29.877Z,99198.53
2023-02-27T23:21:56.350Z,99203.38
2023-02-27T23:24:22.753Z,99199.22
2023-02-27T23:26:51.548Z,99198.41
2023-02-27T23:29:18.578Z,99207.13
2023-02-27T23:31:45.202Z,99215.22
2023-02-27T23:34:11.709Z,99200.94
2023-02-27T23:36:38.609Z,99210.16
2023-02-27T23:39:06.486Z,99211.16
2023-02-27T23:41:33.386Z,99209.94
2023-02-27T23:44:01.440Z,99203.16
2023-02-27T23:46:30.376Z,99213.09
2023-02-27T23:48:58.804Z,99210.69
2023-02-27T23:51:25.426Z,99202.72
2023-02-27T23:53:52.564Z,99206.81
2023-02-27T23:56:25.141Z,99206.69
2023-02-27T23:58:56.550Z,99205.16
